Time;durP1;ratioP1;P1;durP2;ratioP2;P2;SDS_P1;SDS_P2;PMS_P1;PMS_P2;Temp;Humidity;BMP_temperature;BMP_pressure;BME280_temperature;BME280_humidity;BME280_pressure;Samples;Min_cycle;Max_cycle;Signal;HPM_P1;HPM_P2
2021/01/09 00:00:12;;;;;;;43.42;19.98;;;;;;;-0.78;91.07;100434.47;5000277;28;20042;-71
2021/01/09 00:02:38;;;;;;;46.35;21.88;;;;;;;-0.96;92.03;100439.03;5016302;28;20132;-71
2021/01/09 00:05:05;;;;;;;46.90;21.98;;;;;;;-0.93;91.86;100435.50;5016972;28;20025;-71
2021/01/09 00:07:31;;;;;;;45.17;20.70;;;;;;;-0.92;91.98;100437.25;5016298;28;20042;-73
2021/01/09 00:09:57;;;;;;;51.90;21.77;;;;;;;-0.93;91.85;100435.50;5016597;28;20124;-73
2021/01/09 00:12:22;;;;;;;49.75;22.02;;;;;;;-1.00;92.22;100436.44;5034056;28;20100;-73
2021/01/09 00:14:47;;;;;;;52.38;23.65;;;;;;;-1.07;92.43;100435.63;4999647;28;20033;-73
2021/01/09 00:17:13;;;;;;;48.28;21.48;;;;;;;-0.97;92.19;100433.78;5034296;28;20087;-73
2021/01/09 00:19:39;;;;;;;50.67;22.45;;;;;;;-0.83;91.67;100431.91;5015690;28;20042;-71
2021/01/09 00:22:05;;;;;;;47.08;20.92;;;;;;;-0.81;91.60;100440.59;5016316;28;20045;-73
2021/01/09 00:24:30;;;;;;;49.08;22.08;;;;;;;-0.85;91.57;100444.16;5033542;28;20053;-74
2021/01/09 00:26:56;;;;;;;47.95;21.27;;;;;;;-0.87;91.58;100441.56;5015900;28;20136;-73
2021/01/09 00:29:21;;;;;;;45.13;20.00;;;;;;;-0.99;91.66;100428.56;5033930;28;20025;-73
2021/01/09 00:31:46;;;;;;;47.65;21.17;;;;;;;-0.87;91.48;100443.28;5015877;28;20083;-71
2021/01/09 00:34:12;;;;;;;47.47;21.45;;;;;;;-1.04;92.01;100427.78;4999069;28;20040;-72
2021/01/09 00:36:45;;;;;;;46.80;21.77;;;;;;;-0.90;91.73;100443.31;5015902;28;20419;-75
2021/01/09 00:39:10;;;;;;;;;;;;;;;-0.92;91.77;100447.72;5000160;28;20049;-74
2021/01/09 00:41:36;;;;;;;48.85;20.30;;;;;;;-0.93;91.70;100451.22;5015603;28;19920;-75
2021/01/09 00:44:01;;;;;;;46.67;20.95;;;;;;;-1.41;92.28;100388.00;5033482;28;20041;-74
2021/01/09 00:46:27;;;;;;;49.63;21.35;;;;;;;-1.07;92.70;100458.31;5033423;28;20033;-73
2021/01/09 00:48:52;;;;;;;47.75;20.45;;;;;;;-1.19;92.12;100407.84;5015528;28;20117;-73
2021/01/09 00:51:18;;;;;;;47.67;19.70;;;;;;;-0.90;91.88;100456.41;5015811;28;20033;-73
2021/01/09 00:53:44;;;;;;;49.05;21.30;;;;;;;-0.90;91.81;100453.78;5033073;28;20034;-73
2021/01/09 00:56:14;;;;;;;45.08;20.27;;;;;;;-0.89;91.62;100463.38;5015645;28;20148;-74
2021/01/09 00:58:40;;;;;;;47.85;21.10;;;;;;;-1.17;92.00;100423.50;5032908;28;20029;-73
2021/01/09 01:01:05;;;;;;;46.72;20.10;;;;;;;-0.91;91.71;100454.69;5033171;28;20407;-73
2021/01/09 01:03:31;;;;;;;46.38;20.00;;;;;;;-1.03;92.08;100439.97;4999130;28;20040;-80
2021/01/09 01:05:56;;;;;;;52.70;21.27;;;;;;;-1.17;91.56;100400.81;5015588;28;20496;-73
2021/01/09 01:08:22;;;;;;;48.25;21.38;;;;;;;-0.95;91.75;100453.88;5033166;28;20045;-73
2021/01/09 01:10:48;;;;;;;50.15;20.08;;;;;;;-1.26;92.10;100406.16;5032798;28;20467;-73
2021/01/09 01:13:15;;;;;;;52.13;21.25;;;;;;;-1.03;92.30;100460.06;5015526;28;20463;-74
2021/01/09 01:15:41;;;;;;;47.45;19.80;;;;;;;-1.24;92.26;100422.72;4998979;28;20474;-73
2021/01/09 01:18:06;;;;;;;53.17;21.73;;;;;;;-0.94;92.21;100465.19;5015456;28;20053;-73
2021/01/09 01:20:31;;;;;;;52.38;21.45;;;;;;;-1.07;92.31;100456.56;5015569;28;20041;-73
2021/01/09 01:22:57;;;;;;;51.05;20.92;;;;;;;-1.11;92.89;100456.63;5015182;28;20033;-74
2021/01/09 01:25:22;;;;;;;54.13;21.30;;;;;;;-0.99;92.83;100466.97;4982374;28;20112;-73
2021/01/09 01:27:48;;;;;;;51.67;20.52;;;;;;;-1.07;92.72;100458.31;5032484;28;20040;-73
2021/01/09 01:30:14;;;;;;;51.03;21.60;;;;;;;-1.19;92.86;100449.72;5015860;28;20064;-73
2021/01/09 01:32:39;;;;;;;53.80;22.15;;;;;;;-1.16;93.14;100449.72;5032285;28;20487;-73
2021/01/09 01:35:05;;;;;;;54.67;21.38;;;;;;;-1.24;92.43;100419.25;5033176;28;20044;-73
2021/01/09 01:37:31;;;;;;;47.15;19.70;;;;;;;-0.88;92.22;100476.47;5032767;28;20398;-74
2021/01/09 01:39:56;;;;;;;48.13;20.20;;;;;;;-0.92;92.32;100473.91;5032478;28;20036;-75
2021/01/09 01:42:22;;;;;;;54.58;22.00;;;;;;;-1.43;92.29;100412.44;5032756;28;20095;-77
2021/01/09 01:44:47;;;;;;;54.83;21.88;;;;;;;-1.07;92.81;100471.41;5032349;28;20029;-74
2021/01/09 01:47:21;;;;;;;52.15;22.02;;;;;;;-1.17;93.33;100475.88;5018984;28;20038;-75
2021/01/09 01:49:48;;;;;;;55.47;22.98;;;;;;;-1.11;93.14;100472.34;5018734;28;20037;-75
2021/01/09 01:52:14;;;;;;;51.30;20.95;;;;;;;-1.11;93.49;100473.22;5036973;28;20475;-72
2021/01/09 01:54:44;;;;;;;50.72;21.30;;;;;;;-1.15;93.17;100476.75;5036232;28;20056;-73
2021/01/09 01:57:12;;;;;;;53.67;20.77;;;;;;;-1.07;93.32;100467.06;5018929;28;20064;-73
2021/01/09 01:59:38;;;;;;;55.10;21.52;;;;;;;-1.10;93.04;100440.03;5019198;28;20029;-73
2021/01/09 02:02:06;;;;;;;52.88;21.08;;;;;;;-0.91;92.83;100467.78;5036649;28;20033;-73
2021/01/09 02:04:32;;;;;;;55.63;21.55;;;;;;;-0.87;92.48;100477.31;5036886;28;20022;-72
2021/01/09 02:07:01;;;;;;;51.72;20.17;;;;;;;-1.12;92.68;100455.78;5036063;28;20037;-73
2021/01/09 02:09:29;;;;;;;58.15;21.58;;;;;;;-1.15;92.85;100455.81;5036452;28;20025;-73
2021/01/09 02:12:01;;;;;;;52.28;21.35;;;;;;;-1.14;93.37;100472.38;5036576;28;20439;-74
2021/01/09 02:14:35;;;;;;;57.83;21.95;;;;;;;-1.31;93.98;100465.53;5036762;28;20079;-73
2021/01/09 02:17:02;;;;;;;57.65;21.75;;;;;;;-1.40;94.72;100475.22;5035320;28;20067;-72
2021/01/09 02:19:32;;;;;;;56.25;21.75;;;;;;;-1.43;94.70;100468.25;5018458;28;20037;-72
2021/01/09 02:21:59;;;;;;;63.95;22.00;;;;;;;-1.32;94.99;100479.50;5035850;28;20029;-72
2021/01/09 02:24:25;;;;;;;56.08;20.63;;;;;;;-1.34;94.87;100478.66;5036375;28;20098;-73
2021/01/09 02:26:50;;;;;;;54.08;21.38;;;;;;;-1.31;94.99;100476.00;5035853;28;20129;-74
2021/01/09 02:29:16;;;;;;;56.10;21.08;;;;;;;-1.36;94.95;100480.38;5036412;28;20540;-74
2021/01/09 02:32:03;;;;;;;55.60;21.33;;;;;;;-1.31;94.88;100486.47;5035469;28;20044;-74
2021/01/09 02:34:35;;;;;;;59.95;20.27;;;;;;;-1.35;94.74;100481.25;5036013;28;20037;-72
2021/01/09 02:37:01;;;;;;;58.85;21.75;;;;;;;-1.63;94.72;100459.69;5035554;28;20025;-75
2021/01/09 02:39:26;;;;;;;58.40;20.60;;;;;;;-1.82;95.21;100435.41;5018257;28;20041;-74
2021/01/09 02:41:53;;;;;;;56.55;21.67;;;;;;;-1.46;95.57;100492.69;5035689;28;20025;-73
2021/01/09 02:44:19;;;;;;;54.35;19.90;;;;;;;-1.67;95.50;100487.59;5018285;28;20064;-73
2021/01/09 02:46:44;;;;;;;51.72;20.33;;;;;;;-2.00;96.01;100439.03;5017603;28;20084;-73
2021/01/09 02:49:10;;;;;;;54.72;20.80;;;;;;;-1.66;95.81;100489.34;5017982;28;20040;-73
2021/01/09 02:51:35;;;;;;;58.38;21.25;;;;;;;-1.47;95.32;100488.31;5018017;28;20033;-73
2021/01/09 02:54:01;;;;;;;52.72;20.63;;;;;;;-1.48;95.27;100498.81;5035422;28;20042;-72
2021/01/09 02:56:26;;;;;;;53.08;20.55;;;;;;;-1.45;94.94;100494.44;5035191;28;20044;-73
2021/01/09 02:58:52;;;;;;;52.85;19.45;;;;;;;-1.39;94.24;100493.50;5034680;28;20037;-73
2021/01/09 03:01:17;;;;;;;55.47;21.02;;;;;;;-1.36;94.38;100490.00;5017881;28;20080;-72
2021/01/09 03:03:43;;;;;;;55.25;20.77;;;;;;;-1.36;94.00;100497.84;5017681;28;20065;-72
2021/01/09 03:06:09;;;;;;;54.72;20.58;;;;;;;-1.28;93.82;100496.91;5017697;28;20422;-72
2021/01/09 03:08:34;;;;;;;56.50;20.63;;;;;;;-1.33;93.18;100498.72;5017764;28;20478;-72
2021/01/09 03:10:59;;;;;;;54.38;19.75;;;;;;;-1.51;93.49;100504.06;5034997;28;20038;-73
2021/01/09 03:13:25;;;;;;;50.92;18.20;;;;;;;-1.67;93.69;100457.97;4985210;28;20041;-72
2021/01/09 03:15:50;;;;;;;47.67;18.90;;;;;;;-1.67;93.21;100455.34;5035174;28;20029;-74
2021/01/09 03:18:16;;;;;;;47.00;18.77;;;;;;;-1.51;93.15;100477.91;5035124;28;20363;-74
2021/01/09 03:20:41;;;;;;;50.47;20.25;;;;;;;-1.49;93.34;100508.41;5034852;28;20037;-78
2021/01/09 03:23:07;;;;;;;53.45;19.33;;;;;;;-1.53;93.84;100505.84;4984954;28;20460;-72
2021/01/09 03:25:32;;;;;;;55.55;19.02;;;;;;;-1.65;93.90;100500.66;5017431;28;20037;-72
2021/01/09 03:27:57;;;;;;;51.95;18.63;;;;;;;-1.66;93.96;100486.72;5000893;28;20441;-72
2021/01/09 03:30:23;;;;;;;51.90;18.77;;;;;;;-1.95;94.00;100434.63;5034898;28;20036;-71
2021/01/09 03:32:49;;;;;;;50.17;18.45;;;;;;;-1.59;93.94;100504.13;5034647;28;20056;-71
2021/01/09 03:35:15;;;;;;;50.55;18.85;;;;;;;-1.60;93.46;100511.97;5017640;28;20589;-71
2021/01/09 03:37:40;;;;;;;46.22;18.52;;;;;;;-1.57;93.61;100514.56;5017322;28;20128;-72
2021/01/09 03:40:06;;;;;;;55.05;18.90;;;;;;;-1.56;93.85;100517.16;5016778;28;20117;-72
2021/01/09 03:42:33;;;;;;;50.35;18.63;;;;;;;-1.59;93.31;100511.09;5034638;28;20041;-72
2021/01/09 03:44:59;;;;;;;50.00;18.60;;;;;;;-1.46;93.48;100508.38;5017026;28;20030;-72
2021/01/09 03:47:24;;;;;;;51.63;18.65;;;;;;;-1.79;93.38;100456.31;5034765;28;20062;-72
2021/01/09 03:49:50;;;;;;;58.85;20.73;;;;;;;-1.62;93.57;100496.31;5034207;28;20034;-70
2021/01/09 03:52:15;;;;;;;52.22;18.88;;;;;;;-1.83;93.77;100465.06;5017160;28;20069;-72
2021/01/09 03:54:41;;;;;;;58.33;19.60;;;;;;;-1.67;93.71;100505.91;5016971;28;20079;-72
2021/01/09 03:57:06;;;;;;;52.50;19.40;;;;;;;-1.61;93.67;100505.03;5016119;28;20128;-74
2021/01/09 03:59:32;;;;;;;51.60;19.60;;;;;;;-1.83;93.83;100475.53;5016574;28;20039;-73
2021/01/09 04:01:58;;;;;;;55.60;19.52;;;;;;;-1.95;93.37;100454.66;5033805;28;20037;-74
2021/01/09 04:04:23;;;;;;;57.17;19.75;;;;;;;-1.68;93.75;100498.94;5000291;28;20041;-73
2021/01/09 04:06:49;;;;;;;57.67;20.52;;;;;;;-1.47;93.53;100511.00;5000103;28;20067;-74
2021/01/09 04:09:14;;;;;;;57.58;19.52;;;;;;;-1.49;93.20;100492.72;5033115;28;20029;-74
2021/01/09 04:11:39;;;;;;;56.78;19.60;;;;;;;-1.63;92.44;100462.31;5016493;28;20029;-72
2021/01/09 04:14:05;;;;;;;56.45;19.75;;;;;;;-1.36;92.31;100503.94;5016651;28;20047;-73
2021/01/09 04:16:35;;;;;;;57.53;19.30;;;;;;;-1.62;92.23;100459.69;5033935;28;20044;-73
2021/01/09 04:19:01;;;;;;;56.65;20.13;;;;;;;-1.51;92.33;100477.91;5033771;28;20032;-72
2021/01/09 04:21:26;;;;;;;55.85;20.10;;;;;;;-1.51;92.91;100498.84;5034370;28;20033;-72
2021/01/09 04:23:52;;;;;;;53.92;20.48;;;;;;;-1.47;92.29;100463.91;5033622;28;20029;-72
2021/01/09 04:26:17;;;;;;;57.47;19.98;;;;;;;-1.26;91.88;100507.34;5034274;28;20462;-72
2021/01/09 04:28:42;;;;;;;55.17;19.85;;;;;;;-1.41;92.27;100492.66;5033771;28;20048;-73
2021/01/09 04:31:08;;;;;;;52.70;18.70;;;;;;;-1.39;92.21;100514.44;5033294;28;20033;-72
2021/01/09 04:33:34;;;;;;;53.30;18.65;;;;;;;-1.38;91.87;100513.56;5046104;28;20128;-72
2021/01/09 04:35:59;;;;;;;43.85;18.38;;;;;;;-1.77;91.50;100455.41;5052200;28;20128;-72
2021/01/09 04:38:25;;;;;;;54.60;19.52;;;;;;;-1.68;92.45;100501.56;5053692;28;20037;-71
2021/01/09 04:40:50;;;;;;;51.33;19.55;;;;;;;-2.06;92.83;100457.34;5035623;28;20136;-73
2021/01/09 04:43:18;;;;;;;55.58;20.50;;;;;;;-1.55;92.74;100518.91;5053726;28;20041;-72
2021/01/09 04:45:47;;;;;;;55.38;19.92;;;;;;;-1.46;92.21;100513.59;5053673;28;20488;-71
2021/01/09 04:48:13;;;;;;;54.00;19.02;;;;;;;-1.49;91.78;100512.78;5019213;28;20047;-72
2021/01/09 04:50:39;;;;;;;53.80;19.88;;;;;;;-1.69;92.28;100505.06;5053311;28;20040;-72
2021/01/09 04:53:07;;;;;;;60.28;21.02;;;;;;;-1.83;93.00;100489.47;5052938;28;20041;-73
2021/01/09 04:55:34;;;;;;;55.50;19.80;;;;;;;-1.76;93.26;100513.81;5053414;28;20509;-71
2021/01/09 04:58:03;;;;;;;58.20;19.67;;;;;;;-1.74;92.86;100520.78;5053072;28;20040;-72
2021/01/09 05:00:29;;;;;;;58.92;21.30;;;;;;;-1.85;93.12;100504.28;5053351;28;20536;-72
2021/01/09 05:02:56;;;;;;;57.38;21.30;;;;;;;-1.86;93.27;100518.22;5053008;28;20037;-72
2021/01/09 05:05:21;;;;;;;59.40;22.08;;;;;;;-1.86;93.73;100502.53;5053255;28;20025;-72
2021/01/09 05:07:46;;;;;;;56.20;21.45;;;;;;;-1.70;93.32;100518.16;5035463;28;20539;-72
2021/01/09 05:10:12;;;;;;;52.00;19.85;;;;;;;-2.01;93.13;100460.81;5051429;28;20037;-72
2021/01/09 05:12:40;;;;;;;57.45;21.92;;;;;;;-1.69;92.84;100525.13;5053163;28;20029;-72
2021/01/09 05:15:07;;;;;;;61.28;21.27;;;;;;;-1.76;92.90;100512.06;5052780;28;20036;-73
2021/01/09 05:17:34;;;;;;;56.00;20.15;;;;;;;-1.86;92.89;100481.63;5052787;28;20029;-72
2021/01/09 05:20:00;;;;;;;55.30;19.83;;;;;;;-1.54;92.14;100520.66;5052289;28;20056;-73
2021/01/09 05:22:26;;;;;;;61.53;21.50;;;;;;;-1.58;92.34;100536.38;5051800;28;20029;-73
2021/01/09 05:24:52;;;;;;;55.55;22.55;;;;;;;-1.66;92.92;100535.56;5051605;28;20029;-73
2021/01/09 05:27:20;;;;;;;62.30;23.00;;;;;;;-1.77;92.49;100528.63;5052552;28;20044;-71
2021/01/09 05:29:53;;;;;;;55.53;22.27;;;;;;;-1.83;92.88;100533.91;5052963;28;20044;-71
2021/01/09 05:32:20;;;;;;;63.17;24.27;;;;;;;-1.72;93.34;100552.16;5046549;28;20096;-72
2021/01/09 05:34:46;;;;;;;57.47;23.20;;;;;;;-1.67;93.18;100550.38;5032778;28;20030;-73
2021/01/09 05:37:25;;;;;;;61.35;23.27;;;;;;;-1.57;93.38;100556.44;5014983;28;20030;-74
2021/01/09 05:39:54;;;;;;;57.25;22.30;;;;;;;-1.47;93.43;100566.81;5032349;28;20033;-78
2021/01/09 05:42:24;;;;;;;55.90;21.70;;;;;;;-1.45;92.91;100556.34;5032946;28;20171;-74
2021/01/09 05:44:57;;;;;;;58.33;22.05;;;;;;;-1.54;92.34;100520.66;5032839;28;20026;-73
2021/01/09 05:47:30;;;;;;;58.00;21.87;;;;;;;-1.26;92.02;100560.56;5032967;28;20037;-73
2021/01/09 05:49:58;;;;;;;53.25;21.40;;;;;;;-1.22;91.60;100564.06;5032520;28;20394;-72
2021/01/09 05:52:25;;;;;;;54.40;21.38;;;;;;;-1.18;91.89;100561.38;5032956;28;20072;-73
2021/01/09 05:54:58;;;;;;;50.90;20.42;;;;;;;-1.18;91.46;100564.00;5033029;28;20079;-73
2021/01/09 05:57:29;;;;;;;52.97;21.38;;;;;;;-1.09;91.64;100575.28;5032691;28;20064;-73
2021/01/09 06:00:03;;;;;;;55.63;22.92;;;;;;;-1.19;91.62;100570.13;5032616;28;20387;-73
2021/01/09 06:02:38;;;;;;;52.35;21.42;;;;;;;-1.21;91.49;100577.13;5031855;28;20064;-75
2021/01/09 06:05:06;;;;;;;54.63;22.33;;;;;;;-1.21;91.84;100582.34;5014810;28;20459;-75
2021/01/09 06:07:36;;;;;;;60.08;23.30;;;;;;;-1.13;91.95;100589.28;5014969;28;20124;-74
2021/01/09 06:10:11;;;;;;;52.53;21.85;;;;;;;-1.16;92.05;100577.06;5014448;28;20059;-75
2021/01/09 06:12:50;;;;;;;59.10;22.02;;;;;;;-1.11;91.70;100592.75;5032622;28;20032;-75
2021/01/09 06:15:23;;;;;;;54.08;21.67;;;;;;;-1.09;91.73;100591.88;5014857;28;20041;-76
2021/01/09 06:17:49;;;;;;;;;;;;;;;-1.05;91.96;100592.72;5015235;28;20025;-73
2021/01/09 06:20:15;;;;;;;50.03;19.40;;;;;;;-1.04;91.69;100594.47;5032162;28;20446;-73
2021/01/09 06:22:40;;;;;;;76.95;28.90;;;;;;;-1.25;91.46;100559.72;5032361;28;20030;-74
2021/01/09 06:25:09;;;;;;;58.55;23.58;;;;;;;-1.24;91.04;100561.44;5032013;28;20033;-74
2021/01/09 06:27:36;;;;;;;59.25;22.85;;;;;;;-0.98;91.08;100604.88;5032536;28;20068;-73
2021/01/09 06:30:04;;;;;;;54.22;22.33;;;;;;;-0.98;91.14;100590.03;5014436;28;20113;-73
2021/01/09 06:32:35;;;;;;;55.28;21.70;;;;;;;-0.84;90.76;100602.16;5035445;28;20053;-73
2021/01/09 06:35:07;;;;;;;51.95;20.67;;;;;;;-0.90;90.28;100579.50;5035738;28;20538;-73
2021/01/09 06:37:33;;;;;;;53.72;21.10;;;;;;;-0.68;89.71;100602.00;5035886;28;20021;-72
2021/01/09 06:39:59;;;;;;;46.65;20.48;;;;;;;-0.62;89.23;100607.19;5017957;28;20037;-74
2021/01/09 06:42:26;;;;;;;49.85;20.70;;;;;;;-0.73;89.64;100569.75;5002051;28;20477;-73
2021/01/09 06:44:53;;;;;;;52.85;21.23;;;;;;;-0.51;89.91;100604.47;5001978;28;20080;-72
2021/01/09 06:47:29;;;;;;;57.25;23.35;;;;;;;-0.90;89.67;100556.81;5035566;28;20037;-72
2021/01/09 06:50:07;;;;;;;52.78;21.75;;;;;;;-0.38;88.70;100618.34;5001826;28;20091;-72
2021/01/09 06:52:56;;;;;;;54.60;22.60;;;;;;;-0.62;88.54;100588.84;5035608;28;20026;-73
2021/01/09 06:55:37;;;;;;;55.22;23.70;;;;;;;-0.41;89.25;100621.84;5018202;28;20041;-73
2021/01/09 06:58:06;;;;;;;54.17;22.25;;;;;;;-0.46;89.56;100622.78;5017476;28;20589;-71
2021/01/09 07:00:32;;;;;;;53.15;20.85;;;;;;;-0.54;89.83;100627.22;5002323;28;20042;-72
2021/01/09 07:03:14;;;;;;;54.35;21.88;;;;;;;-0.61;90.37;100615.94;5035201;28;20029;-79
2021/01/09 07:05:46;;;;;;;56.38;21.70;;;;;;;-0.62;90.16;100627.28;5001793;28;20455;-75
2021/01/09 07:08:18;;;;;;;49.75;21.63;;;;;;;-0.88;90.07;100619.63;5017529;28;20359;-76
2021/01/09 07:10:48;;;;;;;57.55;22.52;;;;;;;-0.91;90.52;100628.38;5035504;28;20049;-76
2021/01/09 07:13:15;;;;;;;51.90;20.13;;;;;;;-0.91;90.78;100638.00;5017390;28;20037;-74
2021/01/09 07:15:40;;;;;;;52.50;20.90;;;;;;;-1.11;91.37;100630.28;5017740;28;20029;-75
2021/01/09 07:18:07;;;;;;;49.42;21.42;;;;;;;-1.13;91.79;100646.91;5034759;28;20040;-75
2021/01/09 07:20:40;;;;;;;56.03;21.67;;;;;;;-1.13;92.15;100650.38;5035473;28;20038;-75
2021/01/09 07:23:08;;;;;;;55.20;21.05;;;;;;;-1.22;92.29;100647.81;5034702;28;20385;-75
2021/01/09 07:25:38;;;;;;;53.88;21.30;;;;;;;-1.23;92.55;100657.41;5035061;28;20112;-75
2021/01/09 07:28:10;;;;;;;56.80;21.77;;;;;;;-1.23;93.30;100654.78;5034511;28;20494;-75
2021/01/09 07:30:35;;;;;;;62.38;22.60;;;;;;;-1.18;93.26;100654.75;5035138;28;20036;-75
2021/01/09 07:33:01;;;;;;;54.58;21.27;;;;;;;-1.25;92.57;100643.47;5034487;28;20065;-74
2021/01/09 07:35:31;;;;;;;54.67;22.17;;;;;;;-1.21;93.00;100662.63;5017203;28;20037;-73
2021/01/09 07:38:02;;;;;;;59.03;21.92;;;;;;;-1.24;92.57;100660.03;5034777;28;20026;-75
2021/01/09 07:40:32;;;;;;;61.58;22.05;;;;;;;-1.43;92.54;100622.63;5016853;28;20482;-72
2021/01/09 07:42:58;;;;;;;59.15;23.17;;;;;;;-1.25;92.69;100661.78;5016508;28;20034;-72
2021/01/09 07:45:30;;;;;;;59.28;23.77;;;;;;;-1.23;92.65;100662.66;5034459;28;20489;-73
2021/01/09 07:47:56;;;;;;;59.42;22.10;;;;;;;-1.07;92.02;100673.00;4984621;28;20041;-72
2021/01/09 07:50:22;;;;;;;55.28;22.52;;;;;;;-0.98;91.06;100679.06;5034194;28;20876;-72
2021/01/09 07:53:02;;;;;;;53.70;21.85;;;;;;;-0.99;90.28;100676.47;5034708;28;20034;-72
2021/01/09 07:55:43;;;;;;;55.03;21.90;;;;;;;-1.06;90.38;100674.75;5034717;28;20087;-72
2021/01/09 07:58:08;;;;;;;49.10;21.88;;;;;;;-1.04;90.77;100679.13;5034155;28;20038;-74
2021/01/09 08:00:34;;;;;;;56.78;22.50;;;;;;;-1.09;90.51;100664.31;5034414;28;20037;-74
2021/01/09 08:03:00;;;;;;;52.70;22.15;;;;;;;-0.96;90.44;100677.34;5034195;28;20475;-71
2021/01/09 08:05:25;;;;;;;59.13;22.60;;;;;;;-0.84;90.47;100686.84;5033873;28;20041;-75
2021/01/09 08:07:55;;;;;;;55.00;21.52;;;;;;;-0.91;90.36;100677.28;5034632;28;20106;-75
2021/01/09 08:10:33;;;;;;;56.60;24.42;;;;;;;-0.93;90.90;100679.91;5020095;28;20110;-74
2021/01/09 08:13:03;;;;;;;58.08;23.70;;;;;;;-0.98;91.11;100673.81;5016564;28;20033;-75
2021/01/09 08:15:31;;;;;;;64.95;25.38;;;;;;;-0.84;90.76;100672.88;5016561;28;20039;-76
2021/01/09 08:18:15;;;;;;;59.92;24.50;;;;;;;-0.64;90.07;100677.09;5034423;28;20041;-77
2021/01/09 08:20:40;;;;;;;58.80;24.88;;;;;;;-0.80;89.58;100667.59;5016257;28;20063;-76
2021/01/09 08:23:07;;;;;;;60.85;27.08;;;;;;;-0.74;89.78;100667.56;5016043;28;20124;-76
2021/01/09 08:25:38;;;;;;;56.45;25.38;;;;;;;-0.75;89.01;100650.09;5034057;28;20069;-75
2021/01/09 08:28:05;;;;;;;54.58;23.58;;;;;;;-0.53;88.73;100689.22;5016039;28;20042;-75
2021/01/09 08:30:34;;;;;;;56.28;24.35;;;;;;;-0.54;88.27;100680.50;4999171;28;20041;-81
2021/01/09 08:33:06;;;;;;;54.25;23.38;;;;;;;-0.53;88.43;100684.00;5033391;28;20055;-72
2021/01/09 08:35:32;;;;;;;57.58;23.27;;;;;;;-0.50;88.69;100697.94;5072292;28;20139;-71
2021/01/09 08:37:59;;;;;;;64.07;24.60;;;;;;;-0.50;88.84;100692.69;5054137;28;20083;-77
2021/01/09 08:40:25;;;;;;;60.08;25.95;;;;;;;-0.44;88.85;100699.66;5072924;28;20024;-70
2021/01/09 08:43:03;;;;;;;57.97;25.08;;;;;;;-0.46;89.23;100694.41;5072116;28;20040;-72
2021/01/09 08:45:42;;;;;;;59.15;25.48;;;;;;;-0.35;89.62;100704.81;5071296;28;20079;-77
2021/01/09 08:48:10;;;;;;;67.95;27.25;;;;;;;-0.43;89.81;100693.50;5071136;28;20037;-73
2021/01/09 08:50:42;;;;;;;55.47;24.35;;;;;;;-0.42;89.44;100708.34;5071146;28;20029;-81
2021/01/09 08:53:09;;;;;;;58.03;25.17;;;;;;;-0.32;89.09;100707.41;5071091;28;20490;-73
2021/01/09 08:55:36;;;;;;;59.85;25.77;;;;;;;-0.35;89.05;100707.44;5070543;28;20477;-71
2021/01/09 08:58:02;;;;;;;60.03;26.08;;;;;;;-0.56;89.29;100649.97;5073021;28;20048;-73
2021/01/09 09:00:29;;;;;;;64.90;26.77;;;;;;;-0.23;88.40;100696.84;5072466;28;20044;-76
2021/01/09 09:02:57;;;;;;;61.13;25.92;;;;;;;-0.08;88.43;100707.19;5073039;28;20029;-76
2021/01/09 09:05:26;;;;;;;64.43;26.02;;;;;;;-0.14;88.40;100701.13;5070907;28;20370;-76
2021/01/09 09:07:55;;;;;;;68.03;27.30;;;;;;;-0.19;88.88;100698.56;5071552;28;20523;-77
2021/01/09 09:10:23;;;;;;;65.10;27.13;;;;;;;-0.15;88.47;100700.25;5071548;28;20036;-78
2021/01/09 09:12:49;;;;;;;65.80;26.50;;;;;;;-0.01;88.06;100681.75;5072568;28;20478;-76
2021/01/09 09:15:26;;;;;;;65.25;26.90;;;;;;;-0.10;86.32;100666.09;5072999;28;20067;-76
2021/01/09 09:17:52;;;;;;;61.00;25.35;;;;;;;-0.31;87.04;100646.22;5071744;28;20029;-77
2021/01/09 09:20:17;;;;;;;61.45;25.92;;;;;;;-0.14;87.38;100672.28;5072883;28;20520;-77
2021/01/09 09:22:42;;;;;;;61.55;26.02;;;;;;;0.01;87.38;100694.88;5073246;28;20020;-76
2021/01/09 09:25:08;;;;;;;61.08;25.65;;;;;;;-0.11;87.55;100691.47;5072014;28;20051;-76
2021/01/09 09:27:34;;;;;;;63.63;26.38;;;;;;;-0.07;87.93;100695.81;5071698;28;20041;-77
2021/01/09 09:30:10;;;;;;;60.05;26.42;;;;;;;0.17;87.01;100706.94;5073093;28;20040;-76
2021/01/09 09:32:37;;;;;;;55.28;25.45;;;;;;;0.02;86.93;100687.00;5071450;28;20053;-77
2021/01/09 09:35:23;;;;;;;58.38;25.13;;;;;;;0.31;86.47;100702.41;5073175;28;20094;-77
2021/01/09 09:37:50;;;;;;;59.13;26.10;;;;;;;0.10;86.44;100694.78;5071334;28;20382;-76
2021/01/09 09:40:31;;;;;;;56.13;25.25;;;;;;;0.25;86.60;100695.47;5073039;28;20566;-77
2021/01/09 09:43:16;;;;;;;67.75;27.83;;;;;;;0.36;86.42;100687.47;5071509;28;20151;-76
2021/01/09 09:45:58;;;;;;;69.18;28.58;;;;;;;0.18;86.87;100645.69;5072634;28;20056;-76
2021/01/09 09:48:42;;;;;;;64.43;28.42;;;;;;;0.54;85.61;100682.00;5072611;28;20509;-76
2021/01/09 09:51:12;;;;;;;68.57;29.85;;;;;;;0.54;85.22;100671.50;5072892;28;20025;-76
2021/01/09 09:53:40;;;;;;;63.10;28.30;;;;;;;0.58;85.30;100677.59;5072800;28;20031;-76
2021/01/09 09:56:23;;;;;;;65.70;28.40;;;;;;;0.73;84.91;100681.78;5071715;28;20037;-76
2021/01/09 09:59:00;;;;;;;67.50;29.00;;;;;;;0.72;84.72;100664.28;5072601;28;20035;-76
2021/01/09 10:01:27;;;;;;;63.17;28.40;;;;;;;0.59;85.42;100660.09;5072979;28;20041;-76
2021/01/09 10:03:53;;;;;;;68.32;29.30;;;;;;;0.52;85.80;100649.66;5072590;28;20112;-76
2021/01/09 10:06:18;;;;;;;65.50;28.20;;;;;;;0.65;86.04;100658.25;5073817;28;20066;-76
2021/01/09 10:08:45;;;;;;;66.55;29.00;;;;;;;0.54;85.56;100639.13;5075172;28;20033;-76
2021/01/09 10:11:10;;;;;;;63.35;29.33;;;;;;;0.66;85.56;100654.72;5076789;28;20040;-76
2021/01/09 10:13:36;;;;;;;66.88;29.35;;;;;;;0.55;86.26;100641.75;5076637;28;20043;-76
2021/01/09 10:16:02;;;;;;;69.68;30.23;;;;;;;0.75;85.95;100646.72;5075095;28;20040;-76
2021/01/09 10:18:30;;;;;;;66.75;29.50;;;;;;;0.82;85.39;100639.63;5076535;28;20033;-76
2021/01/09 10:20:56;;;;;;;67.93;29.52;;;;;;;0.72;85.31;100638.91;5075090;28;20040;-76
2021/01/09 10:23:25;;;;;;;67.20;29.95;;;;;;;0.67;86.12;100616.19;5076242;28;20041;-76
2021/01/09 10:25:50;;;;;;;70.07;29.60;;;;;;;0.60;85.84;100596.19;5076059;28;20028;-76
2021/01/09 10:28:16;;;;;;;65.15;29.23;;;;;;;0.85;85.35;100621.19;5075566;28;20063;-76
2021/01/09 10:30:42;;;;;;;66.05;28.70;;;;;;;0.98;84.35;100624.53;5076061;28;20033;-76
2021/01/09 10:33:07;;;;;;;68.78;28.83;;;;;;;0.97;84.49;100633.31;5066645;28;20049;-76
2021/01/09 10:35:34;;;;;;;60.33;28.90;;;;;;;0.92;84.35;100608.84;5056030;28;20489;-76
2021/01/09 10:37:59;;;;;;;66.45;28.08;;;;;;;0.89;85.15;100620.28;5055648;28;20482;-76
2021/01/09 10:40:25;;;;;;;62.38;26.45;;;;;;;0.91;83.94;100599.25;5038281;28;20048;-76
2021/01/09 10:42:51;;;;;;;61.42;26.27;;;;;;;0.99;83.51;100611.38;5055726;28;20120;-76
2021/01/09 10:45:17;;;;;;;58.22;25.85;;;;;;;0.83;83.56;100599.34;5055798;28;20474;-76
2021/01/09 10:47:43;;;;;;;59.35;26.50;;;;;;;0.79;84.71;100608.19;5038393;28;20048;-76
2021/01/09 10:50:09;;;;;;;62.40;27.67;;;;;;;0.48;85.31;100556.13;5037846;28;20045;-76
2021/01/09 10:52:35;;;;;;;66.68;29.15;;;;;;;0.89;85.46;100604.53;5055648;28;20095;-76
2021/01/09 10:55:02;;;;;;;71.45;29.23;;;;;;;0.87;85.34;100590.56;5037488;28;20043;-76
2021/01/09 10:57:27;;;;;;;69.57;29.77;;;;;;;0.81;85.59;100564.38;5055735;28;20083;-77
2021/01/09 10:59:52;;;;;;;68.47;30.13;;;;;;;1.15;84.96;100610.22;5055622;28;20025;-76
2021/01/09 11:02:18;;;;;;;70.60;29.90;;;;;;;1.13;85.07;100601.50;5055766;28;20417;-77
2021/01/09 11:04:43;;;;;;;65.05;29.65;;;;;;;1.21;84.76;100598.75;5055596;28;20124;-76
2021/01/09 11:07:09;;;;;;;67.63;29.20;;;;;;;1.02;84.70;100569.28;5055542;28;20048;-76
2021/01/09 11:09:34;;;;;;;66.40;28.30;;;;;;;1.20;84.29;100583.88;5055244;28;20090;-77
2021/01/09 11:12:00;;;;;;;65.55;29.15;;;;;;;1.21;84.61;100595.25;5055282;28;20033;-76
2021/01/09 11:14:26;;;;;;;70.30;29.20;;;;;;;1.24;84.19;100590.81;5037502;28;20033;-76